Chitral Weather



Chitral's Current Weather

Temprature 6.55o few clouds

few clouds

Rain: 0 %

Min Temprature6.55o
Max Temprature6.55o
Humidity47
Wind Speed1.38 m/h
Sun Rise05:37:27
Sun Set18:54:12
Current Time: 23-Aug-2019 05:38:02
Lat/Lon: 35.85, 71.79




Chitral's Geo Location



Chitral's Weather Forecast

Time Overall Temp Min Temp Max Temp Humidity Wind Speed Rain
23-Aug-2019 (Fri)
08:00:00 clear sky 8.970 8.967 8.970 35 0.47 m/h 0 %
11:00:00 clear sky 12.350 12.350 12.350 33 2.44 m/h 0 %
14:00:00 clear sky 14.130 14.130 14.131 35 3.82 m/h 0 %
17:00:00 light rain 10.210 10.210 10.211 53 2 m/h 81 %
20:00:00 light rain 9.750 9.750 9.750 46 1.99 m/h 75 %
23:00:00 overcast clouds 9.142 9.142 9.142 37 2.81 m/h 0 %
24-Aug-2019 (Sat)
02:00:00 overcast clouds 7.631 7.631 7.631 41 2.82 m/h 0 %
05:00:00 overcast clouds 6.255 6.255 6.255 44 2.48 m/h 0 %
08:00:00 broken clouds 8.327 8.327 8.327 32 1.56 m/h 0 %
11:00:00 scattered clouds 11.669 11.669 11.669 25 1.84 m/h 0 %
14:00:00 clear sky 13.969 13.969 13.969 26 3.01 m/h 0 %
17:00:00 scattered clouds 13.223 13.223 13.223 37 0.75 m/h 0 %
20:00:00 broken clouds 11.250 11.250 11.250 41 2.58 m/h 0 %
23:00:00 scattered clouds 9.169 9.169 9.169 38 2.32 m/h 0 %
25-Aug-2019 (Sun)
02:00:00 clear sky 7.431 7.431 7.431 39 2.55 m/h 0 %
05:00:00 clear sky 6.257 6.257 6.257 39 2.45 m/h 0 %
08:00:00 clear sky 9.514 9.514 9.514 24 1.77 m/h 0 %
11:00:00 clear sky 12.816 12.816 12.816 19 1.72 m/h 0 %
14:00:00 clear sky 15.250 15.250 15.250 18 3.2 m/h 0 %
17:00:00 clear sky 14.950 14.950 14.950 29 4.11 m/h 0 %
20:00:00 light rain 11.681 11.681 11.681 54 0.84 m/h 38 %
23:00:00 light rain 10.311 10.311 10.311 38 2.62 m/h 31 %
26-Aug-2019 (Mon)
02:00:00 clear sky 8.765 8.765 8.765 38 2.4 m/h 0 %
05:00:00 scattered clouds 7.750 7.750 7.750 40 2.2 m/h 0 %
08:00:00 broken clouds 10.367 10.367 10.367 28 1.32 m/h 0 %
11:00:00 broken clouds 13.772 13.772 13.772 25 2 m/h 0 %
14:00:00 broken clouds 15.784 15.784 15.784 27 3.1 m/h 0 %
17:00:00 light rain 13.720 13.720 13.720 50 3.62 m/h 50 %
20:00:00 light rain 12.772 12.772 12.772 39 2.88 m/h 75 %
23:00:00 light rain 10.814 10.814 10.814 34 2.66 m/h 13 %
27-Aug-2019 (Tue)
02:00:00 overcast clouds 9.416 9.416 9.416 37 2.86 m/h 0 %
05:00:00 overcast clouds 8.250 8.250 8.250 40 2.77 m/h 0 %
08:00:00 broken clouds 10.535 10.535 10.535 31 2.14 m/h 0 %
11:00:00 scattered clouds 13.636 13.636 13.636 27 1.46 m/h 0 %
14:00:00 clear sky 15.936 15.936 15.936 26 2.26 m/h 0 %
17:00:00 scattered clouds 13.565 13.565 13.565 37 2.4 m/h 0 %
20:00:00 overcast clouds 12.350 12.350 12.350 36 2.1 m/h 0 %
23:00:00 broken clouds 9.850 9.850 9.850 38 2.69 m/h 0 %
28-Aug-2019 (Wed)
02:00:00 scattered clouds 8.457 8.457 8.457 40 2.51 m/h 0 %
05:00:00 broken clouds 7.172 7.172 7.172 44 2.08 m/h 0 %

Famous Cities (61)